createdAt,value
2022-12-14T00:01:48.722Z,11.93
2022-12-14T00:04:18.425Z,11.77
2022-12-14T00:06:47.412Z,11.13
2022-12-14T00:09:17.096Z,10.37
2022-12-14T00:11:45.857Z,10.23
2022-12-14T00:14:14.807Z,10.80
2022-12-14T00:16:43.273Z,11.20
2022-12-14T00:19:13.707Z,11.30
2022-12-14T00:21:42.132Z,10.23
2022-12-14T00:24:12.867Z,10.97
2022-12-14T00:26:41.266Z,10.73
2022-12-14T00:29:10.160Z,11.20
2022-12-14T00:31:38.586Z,11.20
2022-12-14T00:34:07.682Z,11.27
2022-12-14T00:36:37.943Z,11.13
2022-12-14T00:39:06.794Z,11.80
2022-12-14T00:41:35.156Z,11.17
2022-12-14T00:44:04.373Z,11.43
2022-12-14T00:46:32.856Z,10.47
2022-12-14T00:49:01.719Z,11.80
2022-12-14T00:51:30.412Z,11.13
2022-12-14T00:54:00.750Z,11.27
2022-12-14T00:56:29.158Z,11.07
2022-12-14T00:58:58.055Z,11.13
2022-12-14T01:01:30.489Z,12.07
2022-12-14T01:04:17.342Z,11.43
2022-12-14T01:06:47.183Z,10.87
2022-12-14T01:09:17.803Z,11.53
2022-12-14T01:11:46.313Z,10.97
2022-12-14T01:14:18.800Z,11.17
2022-12-14T01:16:47.239Z,11.60
2022-12-14T01:19:17.030Z,11.10
2022-12-14T01:21:45.389Z,11.13
2022-12-14T01:24:14.209Z,11.53
2022-12-14T01:26:43.994Z,10.13
2022-12-14T01:29:13.234Z,10.70
2022-12-14T01:31:41.664Z,10.10
2022-12-14T01:34:11.086Z,10.77
2022-12-14T01:36:40.039Z,11.20
2022-12-14T01:39:13.894Z,11.93
2022-12-14T01:41:45.867Z,9.67
2022-12-14T01:44:52.404Z,11.13
2022-12-14T01:47:26.298Z,11.60
2022-12-14T01:50:01.546Z,10.30
2022-12-14T01:52:36.539Z,12.00
2022-12-14T01:55:09.387Z,11.57
2022-12-14T01:57:43.058Z,10.90
2022-12-14T02:00:14.347Z,11.33
2022-12-14T02:02:47.445Z,12.27
2022-12-14T02:05:17.946Z,11.33
2022-12-14T02:07:49.197Z,11.73
2022-12-14T02:10:19.206Z,11.07
2022-12-14T02:12:56.544Z,11.17
2022-12-14T02:15:26.607Z,11.50
2022-12-14T02:17:55.130Z,11.17
2022-12-14T02:20:24.627Z,11.57
2022-12-14T02:23:29.645Z,11.57
2022-12-14T02:26:25.753Z,10.83
2022-12-14T02:29:30.096Z,11.70
2022-12-14T02:32:06.775Z,10.90
2022-12-14T02:34:49.131Z,11.07
2022-12-14T02:37:24.099Z,11.53
2022-12-14T02:40:01.994Z,10.27
2022-12-14T02:42:42.671Z,11.73
2022-12-14T02:45:18.745Z,10.20
2022-12-14T02:47:55.300Z,11.17
2022-12-14T02:50:28.952Z,11.17
2022-12-14T02:53:05.391Z,10.50
2022-12-14T02:55:39.107Z,11.33
2022-12-14T02:58:13.162Z,10.97
2022-12-14T03:00:44.374Z,11.53
2022-12-14T03:03:13.101Z,12.37
2022-12-14T03:05:42.006Z,11.67
2022-12-14T03:08:14.360Z,11.17
2022-12-14T03:10:49.779Z,11.47
2022-12-14T03:13:23.386Z,12.50
2022-12-14T03:15:59.501Z,10.83
2022-12-14T03:18:35.430Z,11.40
2022-12-14T03:21:08.885Z,11.80
2022-12-14T03:23:41.155Z,11.83
2022-12-14T03:26:15.240Z,11.83
2022-12-14T03:28:48.597Z,11.60
2022-12-14T03:31:23.286Z,11.57
2022-12-14T03:33:54.940Z,11.83
2022-12-14T03:36:28.428Z,12.00
2022-12-14T03:39:02.008Z,11.87
2022-12-14T03:41:39.027Z,11.70
2022-12-14T03:44:17.556Z,12.53
2022-12-14T03:46:57.493Z,11.43
2022-12-14T03:49:39.413Z,11.73
2022-12-14T03:52:13.392Z,12.30
2022-12-14T03:54:51.047Z,12.37
2022-12-14T03:57:31.011Z,12.07
2022-12-14T04:00:04.074Z,11.80
2022-12-14T04:02:51.896Z,12.27
2022-12-14T04:05:26.565Z,12.63
2022-12-14T04:08:05.116Z,12.37
2022-12-14T04:10:58.968Z,12.77
2022-12-14T04:13:52.577Z,12.23
2022-12-14T04:16:44.278Z,12.23
2022-12-14T04:19:19.427Z,12.53
2022-12-14T04:21:53.007Z,12.47
2022-12-14T04:24:46.370Z,12.40
2022-12-14T04:27:20.900Z,12.27
2022-12-14T04:29:59.132Z,12.67
2022-12-14T04:32:33.133Z,13.37
2022-12-14T04:35:08.999Z,12.40
2022-12-14T04:37:40.423Z,12.87
2022-12-14T04:40:12.275Z,12.43
2022-12-14T04:42:48.252Z,11.57
2022-12-14T04:45:22.906Z,12.43
2022-12-14T04:47:59.095Z,11.83
2022-12-14T04:50:32.132Z,12.33
2022-12-14T04:53:06.386Z,12.17
2022-12-14T04:55:40.214Z,12.33
2022-12-14T04:58:14.599Z,13.13
2022-12-14T05:00:56.759Z,12.53
2022-12-14T05:03:30.861Z,13.10
2022-12-14T05:06:10.018Z,12.87
2022-12-14T05:09:03.075Z,12.77
2022-12-14T05:11:54.717Z,12.20
2022-12-14T05:14:32.249Z,12.70
2022-12-14T05:17:08.426Z,12.40
2022-12-14T05:19:38.359Z,13.10
2022-12-14T05:22:10.200Z,11.93
2022-12-14T05:24:38.622Z,13.13
2022-12-14T05:27:07.499Z,12.53
2022-12-14T05:29:35.923Z,11.33
2022-12-14T05:32:05.174Z,13.27
2022-12-14T05:34:34.643Z,12.50
2022-12-14T05:37:03.002Z,11.67
2022-12-14T05:39:33.017Z,13.57
2022-12-14T05:42:01.895Z,12.23
2022-12-14T05:44:30.589Z,12.47
2022-12-14T05:46:59.455Z,12.23
2022-12-14T05:49:27.761Z,12.60
2022-12-14T05:51:56.163Z,13.17
2022-12-14T05:54:24.590Z,12.63
2022-12-14T05:56:55.327Z,13.63
2022-12-14T05:59:24.255Z,12.47
2022-12-14T06:01:53.281Z,12.37
2022-12-14T06:04:22.469Z,12.83
2022-12-14T06:06:50.932Z,13.63
2022-12-14T06:09:20.765Z,13.03
2022-12-14T06:11:50.474Z,13.47
2022-12-14T06:14:21.049Z,12.60
2022-12-14T06:16:49.402Z,13.90
2022-12-14T06:19:18.411Z,12.93
2022-12-14T06:21:47.133Z,13.30
2022-12-14T06:24:15.647Z,13.50
2022-12-14T06:26:44.993Z,13.70
2022-12-14T06:29:16.843Z,13.33
2022-12-14T06:31:49.027Z,14.53
2022-12-14T06:34:18.134Z,13.37
2022-12-14T06:36:48.239Z,14.27
2022-12-14T06:39:17.979Z,14.40
2022-12-14T06:41:51.014Z,14.37
2022-12-14T06:44:20.100Z,15.43
2022-12-14T06:46:50.114Z,14.93
2022-12-14T06:49:19.066Z,15.33
2022-12-14T06:51:47.717Z,14.60
2022-12-14T06:54:17.533Z,14.93
2022-12-14T06:56:48.319Z,14.27
2022-12-14T06:59:17.426Z,15.07
2022-12-14T07:01:50.037Z,14.83
2022-12-14T07:04:21.413Z,14.13
2022-12-14T07:06:50.912Z,14.97
2022-12-14T07:09:19.585Z,14.30
2022-12-14T07:11:50.947Z,14.97
2022-12-14T07:14:19.374Z,15.77
2022-12-14T07:16:49.311Z,15.10
2022-12-14T07:19:20.327Z,15.83
2022-12-14T07:21:48.737Z,13.57
2022-12-14T07:24:17.850Z,15.37
2022-12-14T07:26:46.743Z,14.90
2022-12-14T07:29:16.856Z,15.37
2022-12-14T07:31:49.413Z,15.87
2022-12-14T07:34:20.675Z,15.63
2022-12-14T07:36:51.457Z,14.70
2022-12-14T07:39:20.487Z,16.33
2022-12-14T07:41:50.536Z,15.33
2022-12-14T07:44:23.544Z,14.33
2022-12-14T07:46:52.112Z,16.17
2022-12-14T07:49:22.518Z,15.20
2022-12-14T07:51:52.936Z,15.80
2022-12-14T07:54:22.046Z,15.63
2022-12-14T07:56:50.904Z,17.13
2022-12-14T07:59:19.838Z,17.73
2022-12-14T08:01:48.357Z,15.83
2022-12-14T08:04:20.368Z,16.60
2022-12-14T08:06:50.617Z,15.30
2022-12-14T08:09:20.269Z,15.73
2022-12-14T08:11:48.904Z,16.03
2022-12-14T08:14:19.208Z,15.17
2022-12-14T08:16:50.522Z,15.33
2022-12-14T08:19:20.024Z,21.70
2022-12-14T08:21:50.166Z,16.37
2022-12-14T08:24:18.520Z,15.87
2022-12-14T08:26:49.441Z,16.27
2022-12-14T08:29:19.087Z,16.47
2022-12-14T08:31:48.048Z,16.00
2022-12-14T08:34:21.915Z,16.13
2022-12-14T08:36:52.211Z,16.00
2022-12-14T08:39:21.176Z,16.07
2022-12-14T08:41:49.951Z,15.77
2022-12-14T08:44:18.670Z,16.10
2022-12-14T08:46:47.641Z,17.50
2022-12-14T08:49:16.314Z,17.30
2022-12-14T08:51:45.088Z,16.67
2022-12-14T08:54:15.067Z,17.23
2022-12-14T08:56:44.824Z,16.27
2022-12-14T08:59:30.265Z,16.00
2022-12-14T09:02:02.484Z,16.60
2022-12-14T09:04:30.911Z,17.23
2022-12-14T09:06:59.318Z,15.80
2022-12-14T09:09:29.971Z,15.33
2022-12-14T09:12:03.258Z,16.00
2022-12-14T09:14:32.232Z,15.47
2022-12-14T09:17:01.102Z,16.70
2022-12-14T09:19:30.786Z,16.60
2022-12-14T09:21:59.432Z,15.73
2022-12-14T09:24:29.457Z,15.67
2022-12-14T09:27:01.489Z,15.17
2022-12-14T09:29:31.345Z,17.00
2022-12-14T09:31:59.796Z,17.30
2022-12-14T09:34:29.891Z,16.37
2022-12-14T09:36:59.030Z,16.30
2022-12-14T09:39:29.710Z,15.83
2022-12-14T09:42:10.094Z,16.80
2022-12-14T09:44:47.827Z,16.00
2022-12-14T09:47:20.214Z,15.60
2022-12-14T09:49:52.637Z,16.20
2022-12-14T09:52:24.859Z,16.23
2022-12-14T09:54:56.327Z,16.13
2022-12-14T09:57:30.044Z,15.67
2022-12-14T09:59:58.743Z,17.67
2022-12-14T10:02:38.483Z,16.80
2022-12-14T10:05:24.815Z,17.97
2022-12-14T10:08:02.852Z,17.00
2022-12-14T10:10:40.201Z,16.73
2022-12-14T10:13:21.141Z,16.57
2022-12-14T10:15:59.451Z,17.37
2022-12-14T10:18:59.505Z,16.90
2022-12-14T10:21:39.403Z,17.13
2022-12-14T10:24:14.701Z,16.63
2022-12-14T10:26:48.091Z,16.83
2022-12-14T10:29:23.206Z,16.93
2022-12-14T10:32:00.666Z,17.73
2022-12-14T10:34:31.294Z,17.07
2022-12-14T10:37:13.626Z,18.57
2022-12-14T10:39:54.925Z,17.70
2022-12-14T10:42:32.544Z,18.30
2022-12-14T10:48:23.696Z,17.77
2022-12-14T10:50:58.217Z,17.83
2022-12-14T10:53:35.808Z,18.20
2022-12-14T10:56:15.451Z,16.50
2022-12-14T10:58:46.256Z,18.27
2022-12-14T11:01:16.044Z,17.43
2022-12-14T11:03:49.711Z,17.53
2022-12-14T11:06:21.116Z,16.20
2022-12-14T11:08:51.139Z,17.03
2022-12-14T11:11:22.929Z,17.27
2022-12-14T11:13:55.280Z,17.63
2022-12-14T11:16:36.745Z,16.80
2022-12-14T11:19:06.927Z,17.07
2022-12-14T11:21:38.515Z,16.20
2022-12-14T11:24:08.907Z,17.43
2022-12-14T11:26:41.684Z,17.03
2022-12-14T11:29:22.158Z,18.50
2022-12-14T11:31:52.754Z,18.03
2022-12-14T11:34:27.052Z,19.07
2022-12-14T11:36:55.508Z,19.17
2022-12-14T11:39:26.042Z,17.97
2022-12-14T11:42:02.769Z,19.00
2022-12-14T11:44:36.460Z,17.77
2022-12-14T11:47:08.665Z,19.33
2022-12-14T11:49:45.097Z,17.90
2022-12-14T11:52:17.623Z,19.57
2022-12-14T11:54:50.149Z,18.80
2022-12-14T11:57:26.092Z,20.50
2022-12-14T11:59:59.392Z,19.93
2022-12-14T12:02:31.253Z,18.40
2022-12-14T12:05:08.866Z,19.60
2022-12-14T12:07:40.500Z,18.40
2022-12-14T12:10:19.853Z,20.07
2022-12-14T12:12:54.214Z,20.27
2022-12-14T12:15:36.538Z,21.77
2022-12-14T12:18:09.959Z,20.30
2022-12-14T12:20:42.535Z,37.73
2022-12-14T12:23:15.558Z,33.97
2022-12-14T12:25:46.997Z,22.53
2022-12-14T12:28:20.679Z,22.27
2022-12-14T12:30:55.922Z,22.47
2022-12-14T12:33:32.578Z,24.07
2022-12-14T12:36:04.690Z,21.23
2022-12-14T12:38:51.600Z,22.27
2022-12-14T12:41:30.387Z,20.23
2022-12-14T12:44:03.521Z,22.97
2022-12-14T12:46:53.569Z,22.80
2022-12-14T12:49:27.377Z,20.00
2022-12-14T12:52:00.706Z,19.23
2022-12-14T12:54:36.309Z,21.33
2022-12-14T12:57:07.978Z,21.00
2022-12-14T12:59:41.631Z,19.37
2022-12-14T13:02:23.080Z,20.23
2022-12-14T13:04:53.892Z,20.03
2022-12-14T13:07:31.839Z,16.70
2022-12-14T13:10:06.059Z,22.63
2022-12-14T13:12:39.970Z,26.73
2022-12-14T13:15:19.181Z,27.80
2022-12-14T13:17:53.036Z,21.53
2022-12-14T13:20:25.441Z,20.70
2022-12-14T13:22:55.188Z,22.57
2022-12-14T13:25:28.360Z,20.63
2022-12-14T13:28:22.170Z,21.43
2022-12-14T13:31:03.008Z,22.23
2022-12-14T13:34:08.129Z,20.17
2022-12-14T13:37:11.096Z,21.70
2022-12-14T13:40:19.465Z,21.07
2022-12-14T13:42:59.093Z,21.00
2022-12-14T13:45:31.311Z,20.07
2022-12-14T13:48:00.521Z,21.60
2022-12-14T13:50:36.684Z,20.80
2022-12-14T13:53:14.497Z,21.27
2022-12-14T13:55:49.252Z,24.37
2022-12-14T13:58:21.072Z,24.33
2022-12-14T14:00:59.846Z,25.23
2022-12-14T14:03:53.084Z,23.60
2022-12-14T14:06:38.175Z,25.07
2022-12-14T14:09:59.749Z,25.23
2022-12-14T14:12:46.459Z,25.80
2022-12-14T14:15:29.425Z,25.43
2022-12-14T14:18:08.582Z,27.77
2022-12-14T14:20:42.590Z,28.80
2022-12-14T14:23:33.196Z,27.33
2022-12-14T14:26:19.204Z,27.50
2022-12-14T14:29:05.562Z,27.93
2022-12-14T14:31:52.841Z,27.60
2022-12-14T14:34:25.923Z,27.83
2022-12-14T14:36:55.035Z,27.50
2022-12-14T14:39:56.205Z,27.10
2022-12-14T14:42:28.495Z,27.13
2022-12-14T14:44:59.269Z,26.27
2022-12-14T14:47:32.768Z,27.63
2022-12-14T14:50:04.203Z,28.67
2022-12-14T14:53:01.375Z,27.13
2022-12-14T14:55:54.120Z,26.47
2022-12-14T14:58:28.662Z,27.33
2022-12-14T15:01:03.634Z,24.93
2022-12-14T15:03:46.446Z,28.13
2022-12-14T15:06:17.094Z,23.90
2022-12-14T15:08:50.126Z,25.47
2022-12-14T15:11:22.480Z,24.27
2022-12-14T15:13:55.129Z,31.13
2022-12-14T15:16:29.779Z,33.37
2022-12-14T15:19:21.922Z,28.57
2022-12-14T15:21:53.289Z,25.77
2022-12-14T15:24:23.253Z,26.70
2022-12-14T15:26:53.917Z,37.13
2022-12-14T15:29:27.876Z,31.87
2022-12-14T15:32:00.862Z,27.63
2022-12-14T15:34:29.614Z,25.60
2022-12-14T15:36:58.749Z,27.07
2022-12-14T15:39:40.268Z,25.70
2022-12-14T15:42:15.681Z,25.40
2022-12-14T15:44:51.560Z,27.53
2022-12-14T15:47:26.107Z,27.30
2022-12-14T15:49:59.698Z,24.60
2022-12-14T15:52:31.701Z,25.40
2022-12-14T15:55:01.173Z,23.90
2022-12-14T15:57:31.642Z,24.70
2022-12-14T16:00:00.630Z,24.03
2022-12-14T16:02:32.182Z,24.67
2022-12-14T16:05:03.533Z,22.07
2022-12-14T16:07:39.904Z,22.10
2022-12-14T16:10:20.320Z,24.27
2022-12-14T16:12:53.879Z,25.00
2022-12-14T16:15:24.979Z,25.17
2022-12-14T16:18:01.441Z,25.80
2022-12-14T16:20:34.940Z,27.80
2022-12-14T16:23:07.357Z,55.50
2022-12-14T16:25:36.811Z,69.53
2022-12-14T16:28:23.172Z,46.63
2022-12-14T16:30:57.288Z,31.67
2022-12-14T16:33:26.715Z,27.60
2022-12-14T16:36:07.351Z,26.30
2022-12-14T16:38:42.791Z,25.87
2022-12-14T16:41:11.293Z,26.20
2022-12-14T16:43:42.843Z,34.03
2022-12-14T16:46:17.496Z,52.00
2022-12-14T16:48:50.316Z,33.83
2022-12-14T16:51:58.190Z,40.37
2022-12-14T16:54:27.061Z,30.23
2022-12-14T16:57:01.982Z,28.23
2022-12-14T16:59:41.065Z,27.60
2022-12-14T17:02:28.192Z,25.50
2022-12-14T17:04:58.611Z,25.60
2022-12-14T17:07:30.189Z,27.93
2022-12-14T17:09:59.336Z,28.97
2022-12-14T17:12:27.956Z,28.00
2022-12-14T17:14:57.864Z,28.77
2022-12-14T17:17:32.871Z,26.93
2022-12-14T17:20:02.693Z,28.80
2022-12-14T17:22:34.101Z,29.80
2022-12-14T17:25:03.467Z,28.47
2022-12-14T17:27:32.109Z,28.53
2022-12-14T17:30:02.821Z,30.00
2022-12-14T17:32:31.814Z,28.63
2022-12-14T17:35:01.008Z,31.90
2022-12-14T17:37:34.289Z,30.93
2022-12-14T17:40:07.508Z,28.03
2022-12-14T17:42:38.631Z,29.10
2022-12-14T17:45:21.277Z,16.73
2022-12-14T17:47:50.735Z,33.07
2022-12-14T17:50:20.353Z,60.60
2022-12-14T17:52:50.721Z,48.47
2022-12-14T17:55:21.773Z,43.30
2022-12-14T17:57:50.716Z,39.07
2022-12-14T18:00:40.117Z,35.97
2022-12-14T18:03:10.261Z,29.83
2022-12-14T18:05:44.886Z,33.23
2022-12-14T18:08:15.068Z,29.20
2022-12-14T18:10:44.150Z,30.47
2022-12-14T18:13:13.427Z,29.30
2022-12-14T18:15:50.192Z,33.33
2022-12-14T18:18:19.695Z,36.13
2022-12-14T18:20:51.407Z,42.27
2022-12-14T18:23:21.006Z,37.87
2022-12-14T18:25:51.694Z,33.90
2022-12-14T18:28:21.681Z,42.30
2022-12-14T18:30:55.547Z,35.57
2022-12-14T18:33:25.357Z,29.83
2022-12-14T18:35:56.678Z,30.83
2022-12-14T18:38:25.513Z,32.53
2022-12-14T18:40:58.579Z,36.20
2022-12-14T18:43:29.417Z,33.00
2022-12-14T18:46:00.419Z,32.53
2022-12-14T18:48:28.868Z,37.07
2022-12-14T18:50:57.421Z,38.77
2022-12-14T18:53:27.222Z,37.80
2022-12-14T18:55:55.940Z,33.60
2022-12-14T18:58:27.332Z,33.37
2022-12-14T19:00:58.116Z,36.47
2022-12-14T19:03:31.641Z,33.77
2022-12-14T19:06:34.859Z,41.53
2022-12-14T19:08:54.630Z,37.53
2022-12-14T19:11:30.394Z,33.83
2022-12-14T19:13:59.312Z,34.03
2022-12-14T19:16:28.313Z,37.40
2022-12-14T19:18:58.661Z,38.20
2022-12-14T19:21:27.928Z,33.80
2022-12-14T19:23:57.330Z,33.70
2022-12-14T19:26:28.042Z,32.80
2022-12-14T19:28:56.797Z,36.93
2022-12-14T19:31:25.308Z,29.23
2022-12-14T19:33:54.697Z,29.00
2022-12-14T19:36:25.159Z,28.97
2022-12-14T19:38:53.992Z,33.20
2022-12-14T19:41:22.386Z,30.80
2022-12-14T19:43:51.013Z,28.90
2022-12-14T19:46:20.241Z,30.73
2022-12-14T19:48:48.659Z,31.30
2022-12-14T19:51:19.350Z,30.43
2022-12-14T19:53:49.328Z,28.10
2022-12-14T19:56:19.529Z,29.23
2022-12-14T19:58:48.698Z,28.90
2022-12-14T20:01:19.096Z,26.97
2022-12-14T20:03:49.475Z,26.30
2022-12-14T20:06:18.325Z,26.83
2022-12-14T20:08:49.391Z,27.73
2022-12-14T20:11:20.629Z,27.07
2022-12-14T20:13:54.901Z,33.53
2022-12-14T20:16:27.734Z,28.60
2022-12-14T20:18:56.237Z,29.70
2022-12-14T20:21:29.184Z,30.60
2022-12-14T20:23:58.478Z,34.67
2022-12-14T20:26:29.561Z,30.10
2022-12-14T20:29:00.941Z,29.33
2022-12-14T20:31:29.765Z,28.97
2022-12-14T20:34:00.101Z,28.93
2022-12-14T20:36:28.972Z,27.60
2022-12-14T20:38:58.359Z,31.20
2022-12-14T20:41:31.653Z,29.13
2022-12-14T20:44:02.045Z,31.10
2022-12-14T20:46:32.557Z,33.97
2022-12-14T20:49:04.382Z,30.00
2022-12-14T20:51:34.740Z,27.90
2022-12-14T20:54:04.055Z,29.90
2022-12-14T20:56:35.374Z,29.30
2022-12-14T20:59:04.363Z,33.67
2022-12-14T21:01:33.287Z,35.30
2022-12-14T21:04:02.425Z,34.57
2022-12-14T21:06:30.815Z,33.50
2022-12-14T21:09:05.504Z,29.27
2022-12-14T21:11:54.461Z,28.70
2022-12-14T21:14:25.953Z,32.63
2022-12-14T21:16:54.916Z,27.47
2022-12-14T21:19:24.603Z,28.37
2022-12-14T21:21:54.162Z,28.47
2022-12-14T21:25:01.138Z,30.30
2022-12-14T21:27:16.973Z,31.53
2022-12-14T21:29:46.487Z,28.27
2022-12-14T21:32:16.056Z,28.13
2022-12-14T21:34:46.092Z,28.03
2022-12-14T21:37:15.318Z,28.13
2022-12-14T21:39:51.869Z,28.93
2022-12-14T21:42:23.578Z,28.23
2022-12-14T21:44:53.452Z,30.23
2022-12-14T21:47:23.553Z,28.67
2022-12-14T21:49:52.647Z,27.60
2022-12-14T21:52:23.189Z,28.10
2022-12-14T21:54:52.189Z,29.30
2022-12-14T21:57:40.057Z,26.67
2022-12-14T22:00:12.648Z,29.90
2022-12-14T22:02:42.666Z,27.70
2022-12-14T22:05:12.044Z,27.97
2022-12-14T22:07:40.735Z,28.93
2022-12-14T22:10:09.827Z,29.87
2022-12-14T22:12:38.192Z,28.07
2022-12-14T22:15:08.523Z,29.03
2022-12-14T22:17:38.494Z,28.47
2022-12-14T22:20:09.053Z,29.73
2022-12-14T22:22:37.526Z,29.50
2022-12-14T22:25:07.403Z,28.87
2022-12-14T22:27:35.807Z,28.03
2022-12-14T22:30:05.665Z,27.97
2022-12-14T22:32:34.085Z,29.70
2022-12-14T22:35:04.897Z,29.13
2022-12-14T22:37:33.393Z,28.77
2022-12-14T22:40:02.555Z,27.70
2022-12-14T22:42:31.125Z,30.20
2022-12-14T22:45:00.316Z,28.73
2022-12-14T22:47:29.638Z,27.87
2022-12-14T22:49:58.704Z,29.50
2022-12-14T22:52:28.424Z,30.33
2022-12-14T22:54:57.219Z,29.37
2022-12-14T22:57:25.792Z,29.93
2022-12-14T22:59:58.722Z,32.47
2022-12-14T23:02:27.509Z,31.20
2022-12-14T23:04:57.007Z,36.50
2022-12-14T23:07:26.045Z,37.23
2022-12-14T23:10:13.710Z,29.97
2022-12-14T23:12:59.825Z,35.57
2022-12-14T23:15:45.881Z,33.23
2022-12-14T23:18:31.917Z,32.07
2022-12-14T23:21:18.154Z,33.17
2022-12-14T23:24:04.627Z,31.83
2022-12-14T23:26:52.722Z,34.30
2022-12-14T23:29:38.706Z,32.47
2022-12-14T23:32:25.052Z,32.53
2022-12-14T23:35:11.259Z,31.13
2022-12-14T23:37:57.707Z,31.20
2022-12-14T23:40:43.822Z,31.17
2022-12-14T23:43:34.656Z,33.37
2022-12-14T23:46:22.528Z,29.87
2022-12-14T23:49:13.732Z,29.03
2022-12-14T23:52:02.518Z,28.37
2022-12-14T23:54:49.325Z,28.77
2022-12-14T23:57:35.863Z,27.67
